createdAt,value
2023-01-25T00:00:00.891Z,26.02
2023-01-25T00:02:28.400Z,24.92
2023-01-25T00:04:54.930Z,26.15
2023-01-25T00:07:21.611Z,22.73
2023-01-25T00:09:48.047Z,23.90
2023-01-25T00:12:14.520Z,24.02
2023-01-25T00:14:40.975Z,26.90
2023-01-25T00:17:07.406Z,21.35
2023-01-25T00:19:33.975Z,26.67
2023-01-25T00:22:00.450Z,23.92
2023-01-25T00:24:26.959Z,23.98
2023-01-25T00:26:53.387Z,19.50
2023-01-25T00:29:19.943Z,25.55
2023-01-25T00:31:58.729Z,23.33
2023-01-25T00:34:25.363Z,22.98
2023-01-25T00:36:56.905Z,23.27
2023-01-25T00:39:25.112Z,23.85
2023-01-25T00:41:51.549Z,19.65
2023-01-25T00:44:18.031Z,22.25
2023-01-25T00:46:44.678Z,22.10
2023-01-25T00:49:22.705Z,26.38
2023-01-25T00:51:49.868Z,25.75
2023-01-25T00:54:16.998Z,24.30
2023-01-25T00:56:43.643Z,21.88
2023-01-25T00:59:10.610Z,20.77
2023-01-25T01:01:37.430Z,20.15
2023-01-25T01:04:05.698Z,21.60
2023-01-25T01:06:35.588Z,24.25
2023-01-25T01:09:02.890Z,25.38
2023-01-25T01:11:31.416Z,22.65
2023-01-25T01:13:58.771Z,23.17
2023-01-25T01:16:26.208Z,24.00
2023-01-25T01:18:53.323Z,25.85
2023-01-25T01:21:20.532Z,23.63
2023-01-25T01:23:48.197Z,26.23
2023-01-25T01:26:19.232Z,20.60
2023-01-25T01:28:46.303Z,25.15
2023-01-25T01:31:24.110Z,24.55
2023-01-25T01:33:52.543Z,24.10
2023-01-25T01:36:20.719Z,21.00
2023-01-25T01:38:47.841Z,27.23
2023-01-25T01:41:15.457Z,18.60
2023-01-25T01:43:42.925Z,20.83
2023-01-25T01:46:27.687Z,20.70
2023-01-25T01:49:38.299Z,27.33
2023-01-25T01:52:11.093Z,27.42
2023-01-25T01:54:55.320Z,26.25
2023-01-25T01:57:32.347Z,23.27
2023-01-25T02:00:04.875Z,22.00
2023-01-25T02:02:31.385Z,24.88
2023-01-25T02:05:00.988Z,19.35
2023-01-25T02:07:35.955Z,29.17
2023-01-25T02:10:05.663Z,25.25
2023-01-25T02:12:32.420Z,23.13
2023-01-25T02:14:58.923Z,26.92
2023-01-25T02:17:34.282Z,25.92
2023-01-25T02:20:37.744Z,26.42
2023-01-25T02:23:06.980Z,24.25
2023-01-25T02:25:33.385Z,25.55
2023-01-25T02:28:07.295Z,24.58
2023-01-25T02:30:34.472Z,21.65
2023-01-25T02:33:01.072Z,25.33
2023-01-25T02:36:09.078Z,21.25
2023-01-25T02:38:38.849Z,22.42
2023-01-25T02:41:13.689Z,21.38
2023-01-25T02:43:40.104Z,24.50
2023-01-25T02:46:31.847Z,26.77
2023-01-25T02:48:59.920Z,23.08
2023-01-25T02:51:29.758Z,27.80
2023-01-25T02:53:57.252Z,27.52
2023-01-25T02:56:23.841Z,24.08
2023-01-25T02:58:50.590Z,26.90
2023-01-25T03:01:17.373Z,20.63
2023-01-25T03:03:43.940Z,25.70
2023-01-25T03:06:10.889Z,23.80
2023-01-25T03:08:37.344Z,24.95
2023-01-25T03:11:06.248Z,25.55
2023-01-25T03:13:34.096Z,27.52
2023-01-25T03:16:07.698Z,19.65
2023-01-25T03:18:34.706Z,22.02
2023-01-25T03:21:20.145Z,24.55
2023-01-25T03:23:47.909Z,25.67
2023-01-25T03:26:20.602Z,24.63
2023-01-25T03:28:47.148Z,24.92
2023-01-25T03:31:15.357Z,22.88
2023-01-25T03:33:42.402Z,29.35
2023-01-25T03:36:10.446Z,26.65
2023-01-25T03:38:37.488Z,23.98
2023-01-25T03:41:04.341Z,25.38
2023-01-25T03:43:30.852Z,21.60
2023-01-25T03:45:59.504Z,24.10
2023-01-25T03:48:27.390Z,23.20
2023-01-25T03:50:58.264Z,20.33
2023-01-25T03:53:29.830Z,24.17
2023-01-25T03:55:58.075Z,26.10
2023-01-25T03:58:25.223Z,26.33
2023-01-25T04:00:55.320Z,25.08
2023-01-25T04:03:22.235Z,26.00
2023-01-25T04:05:48.960Z,23.75
2023-01-25T04:08:15.480Z,25.88
2023-01-25T04:10:41.927Z,22.75
2023-01-25T04:13:08.834Z,22.75
2023-01-25T04:15:35.658Z,23.42
2023-01-25T04:18:02.306Z,23.15
2023-01-25T04:20:28.842Z,22.17
2023-01-25T04:22:55.224Z,27.60
2023-01-25T04:25:21.675Z,22.92
2023-01-25T04:27:49.615Z,25.33
2023-01-25T04:30:16.298Z,29.88
2023-01-25T04:32:43.144Z,26.27
2023-01-25T04:35:09.970Z,28.98
2023-01-25T04:37:36.705Z,24.00
2023-01-25T04:40:04.114Z,22.85
2023-01-25T04:42:30.669Z,24.63
2023-01-25T04:44:57.068Z,21.02
2023-01-25T04:47:23.502Z,20.42
2023-01-25T04:49:49.911Z,23.33
2023-01-25T04:52:16.349Z,22.95
2023-01-25T04:54:42.923Z,23.42
2023-01-25T04:57:09.369Z,22.35
2023-01-25T04:59:35.752Z,22.10
2023-01-25T05:02:02.223Z,21.52
2023-01-25T05:04:28.636Z,26.08
2023-01-25T05:06:55.123Z,23.20
2023-01-25T05:09:21.611Z,24.27
2023-01-25T05:11:48.026Z,29.65
2023-01-25T05:14:14.481Z,26.13
2023-01-25T05:16:40.914Z,23.17
2023-01-25T05:19:09.817Z,25.17
2023-01-25T05:21:54.828Z,27.83
2023-01-25T05:24:21.290Z,25.98
2023-01-25T05:27:06.100Z,27.80
2023-01-25T05:29:36.255Z,24.27
2023-01-25T05:32:05.085Z,19.58
2023-01-25T05:34:31.927Z,19.95
2023-01-25T05:36:58.631Z,19.80
2023-01-25T05:39:25.163Z,23.10
2023-01-25T05:41:52.122Z,19.83
2023-01-25T05:44:18.990Z,18.23
2023-01-25T05:46:45.698Z,16.85
2023-01-25T05:49:12.642Z,17.45
2023-01-25T05:51:39.707Z,23.40
2023-01-25T05:54:07.203Z,21.33
2023-01-25T05:56:34.266Z,24.75
2023-01-25T05:59:17.278Z,20.42
2023-01-25T06:01:43.945Z,14.48
2023-01-25T06:04:14.899Z,17.60
2023-01-25T06:06:41.524Z,19.25
2023-01-25T06:09:08.027Z,21.17
2023-01-25T06:11:34.401Z,21.77
2023-01-25T06:14:00.832Z,23.83
2023-01-25T06:16:27.626Z,25.55
2023-01-25T06:18:54.020Z,22.90
2023-01-25T06:21:20.492Z,22.17
2023-01-25T06:23:46.910Z,24.20
2023-01-25T06:26:15.497Z,19.55
2023-01-25T06:28:42.086Z,25.80
2023-01-25T06:31:11.214Z,21.70
2023-01-25T06:33:38.469Z,22.77
2023-01-25T06:36:08.003Z,21.10
2023-01-25T06:38:37.551Z,21.90
2023-01-25T06:41:06.543Z,26.10
2023-01-25T06:43:34.098Z,22.20
2023-01-25T06:46:01.915Z,23.80
2023-01-25T06:48:29.690Z,19.08
2023-01-25T06:50:58.354Z,23.00
2023-01-25T06:53:30.541Z,18.15
2023-01-25T06:56:18.177Z,22.25
2023-01-25T06:58:45.627Z,22.08
2023-01-25T07:01:19.806Z,20.95
2023-01-25T07:03:51.209Z,24.75
2023-01-25T07:06:17.943Z,22.65
2023-01-25T07:08:44.395Z,19.48
2023-01-25T07:11:13.915Z,19.42
2023-01-25T07:13:45.774Z,17.02
2023-01-25T07:16:14.868Z,21.92
2023-01-25T07:18:42.163Z,22.23
2023-01-25T07:21:13.108Z,22.23
2023-01-25T07:23:40.124Z,25.30
2023-01-25T07:26:10.106Z,28.00
2023-01-25T07:28:36.521Z,26.30
2023-01-25T07:31:07.010Z,21.20
2023-01-25T07:33:34.236Z,19.80
2023-01-25T07:36:06.302Z,22.13
2023-01-25T07:38:32.752Z,18.25
2023-01-25T07:41:00.749Z,16.60
2023-01-25T07:43:27.541Z,25.17
2023-01-25T07:45:54.253Z,18.17
2023-01-25T07:48:21.154Z,18.33
2023-01-25T07:50:49.605Z,18.85
2023-01-25T07:53:16.959Z,19.05
2023-01-25T07:55:43.403Z,17.83
2023-01-25T07:58:12.981Z,18.58
2023-01-25T08:00:40.287Z,21.00
2023-01-25T08:03:08.028Z,18.77
2023-01-25T08:05:34.364Z,17.30
2023-01-25T08:08:00.816Z,21.60
2023-01-25T08:10:27.216Z,17.45
2023-01-25T08:12:53.785Z,20.55
2023-01-25T08:15:20.156Z,11.20
2023-01-25T08:17:46.559Z,12.13
2023-01-25T08:20:13.932Z,11.85
2023-01-25T08:22:40.319Z,12.25
2023-01-25T08:25:07.703Z,11.73
2023-01-25T08:27:34.298Z,13.27
2023-01-25T08:30:00.775Z,11.90
2023-01-25T08:32:27.173Z,13.45
2023-01-25T08:34:53.542Z,14.93
2023-01-25T08:37:20.021Z,16.23
2023-01-25T08:39:46.454Z,15.55
2023-01-25T08:42:12.827Z,15.18
2023-01-25T08:44:39.228Z,14.82
2023-01-25T08:47:06.070Z,11.65
2023-01-25T08:49:34.427Z,11.27
2023-01-25T08:52:00.989Z,15.38
2023-01-25T08:54:27.498Z,13.50
2023-01-25T08:56:54.006Z,18.00
2023-01-25T08:59:20.472Z,14.85
2023-01-25T09:01:46.835Z,17.00
2023-01-25T09:04:13.340Z,16.33
2023-01-25T09:06:39.823Z,17.58
2023-01-25T09:09:08.398Z,14.70
2023-01-25T09:11:37.113Z,13.65
2023-01-25T09:14:04.636Z,15.32
2023-01-25T09:16:31.330Z,19.00
2023-01-25T09:19:00.357Z,18.17
2023-01-25T09:21:27.732Z,15.23
2023-01-25T09:24:09.666Z,15.10
2023-01-25T09:26:39.271Z,13.55
2023-01-25T09:29:08.233Z,10.60
2023-01-25T09:31:35.574Z,11.23
2023-01-25T09:34:02.425Z,17.52
2023-01-25T09:36:28.795Z,10.65
2023-01-25T09:38:55.845Z,12.27
2023-01-25T09:41:49.889Z,11.95
2023-01-25T09:47:31.063Z,14.10
2023-01-25T09:50:32.551Z,15.38
2023-01-25T09:53:06.447Z,13.77
2023-01-25T09:55:33.844Z,18.25
2023-01-25T09:58:02.633Z,16.00
2023-01-25T10:00:41.475Z,14.15
2023-01-25T10:03:25.905Z,14.93
2023-01-25T10:05:56.823Z,17.23
2023-01-25T10:08:53.688Z,18.02
2023-01-25T10:11:25.011Z,17.15
2023-01-25T10:13:51.802Z,15.65
2023-01-25T10:16:32.964Z,13.43
2023-01-25T10:19:20.807Z,12.98
2023-01-25T10:21:57.236Z,16.50
2023-01-25T10:24:26.384Z,14.85
2023-01-25T10:26:57.336Z,16.05
2023-01-25T10:29:28.920Z,16.02
2023-01-25T10:32:16.109Z,12.50
2023-01-25T10:34:56.379Z,14.48
2023-01-25T10:37:28.288Z,13.07
2023-01-25T10:40:13.513Z,13.93
2023-01-25T10:42:50.543Z,14.20
2023-01-25T10:45:17.517Z,14.55
2023-01-25T10:47:48.423Z,14.50
2023-01-25T10:50:46.490Z,14.95
2023-01-25T10:53:26.717Z,14.52
2023-01-25T10:56:10.742Z,16.70
2023-01-25T10:58:39.703Z,20.88
2023-01-25T11:01:08.835Z,14.85
2023-01-25T11:03:38.661Z,17.13
2023-01-25T11:06:06.456Z,15.07
2023-01-25T11:08:34.854Z,15.05
2023-01-25T11:11:21.512Z,16.48
2023-01-25T11:13:48.186Z,15.90
2023-01-25T11:16:38.851Z,12.73
2023-01-25T11:19:41.958Z,18.15
2023-01-25T11:22:20.475Z,17.05
2023-01-25T11:24:47.490Z,16.88
2023-01-25T11:27:20.363Z,14.82
2023-01-25T11:30:08.306Z,15.63
2023-01-25T11:32:35.122Z,16.20
2023-01-25T11:35:01.987Z,12.80
2023-01-25T11:37:56.165Z,15.95
2023-01-25T11:40:37.623Z,17.00
2023-01-25T11:43:44.167Z,18.45
2023-01-25T11:46:50.438Z,16.65
2023-01-25T11:52:16.557Z,14.30
2023-01-25T11:54:56.786Z,16.30
2023-01-25T11:57:35.249Z,14.45
2023-01-25T12:00:22.714Z,16.83
2023-01-25T12:03:07.966Z,18.20
2023-01-25T12:05:59.898Z,16.33
2023-01-25T12:08:40.836Z,15.48
2023-01-25T12:11:26.008Z,16.50
2023-01-25T12:14:04.501Z,16.38
2023-01-25T12:16:53.494Z,15.25
2023-01-25T12:19:23.020Z,18.30
2023-01-25T12:22:06.027Z,16.38
2023-01-25T12:24:37.489Z,16.63
2023-01-25T12:27:19.030Z,14.57
2023-01-25T12:29:52.303Z,14.50
2023-01-25T12:32:32.605Z,13.98
2023-01-25T12:35:23.830Z,8.38
2023-01-25T12:37:52.989Z,12.55
2023-01-25T12:40:25.836Z,15.10
2023-01-25T12:42:56.835Z,18.30
2023-01-25T12:45:31.659Z,12.75
2023-01-25T12:48:00.932Z,16.05
2023-01-25T12:50:51.318Z,14.15
2023-01-25T12:53:36.229Z,14.95
2023-01-25T12:56:06.562Z,13.63
2023-01-25T12:58:44.207Z,10.80
2023-01-25T13:01:22.679Z,10.02
2023-01-25T13:04:28.334Z,11.95
2023-01-25T13:07:20.715Z,9.48
2023-01-25T13:10:23.597Z,13.45
2023-01-25T13:12:57.829Z,10.75
2023-01-25T13:15:44.731Z,9.38
2023-01-25T13:18:29.655Z,10.20
2023-01-25T13:20:58.034Z,12.50
2023-01-25T13:23:32.720Z,11.02
2023-01-25T13:26:20.904Z,13.32
2023-01-25T13:28:52.608Z,12.50
2023-01-25T13:31:59.044Z,14.63
2023-01-25T13:34:35.569Z,13.50
2023-01-25T13:37:42.639Z,14.30
2023-01-25T13:40:31.366Z,14.18
2023-01-25T13:43:01.987Z,15.75
2023-01-25T13:45:29.498Z,15.07
2023-01-25T13:48:19.826Z,13.30
2023-01-25T13:50:53.314Z,12.88
2023-01-25T13:53:23.440Z,14.90
2023-01-25T13:55:53.593Z,17.83
2023-01-25T13:58:22.821Z,14.65
2023-01-25T14:01:13.095Z,12.32
2023-01-25T14:03:56.806Z,10.20
2023-01-25T14:06:31.960Z,11.88
2023-01-25T14:09:03.049Z,11.00
2023-01-25T14:11:32.133Z,11.90
2023-01-25T14:14:18.762Z,9.60
2023-01-25T14:16:45.427Z,12.95
2023-01-25T14:19:26.468Z,10.25
2023-01-25T14:22:27.364Z,12.38
2023-01-25T14:25:15.476Z,13.77
2023-01-25T14:27:53.807Z,10.75
2023-01-25T14:30:26.297Z,10.25
2023-01-25T14:32:58.998Z,12.13
2023-01-25T14:35:53.837Z,12.32
2023-01-25T14:38:34.657Z,12.18
2023-01-25T14:41:16.562Z,14.60
2023-01-25T14:43:46.099Z,11.60
2023-01-25T14:46:26.659Z,14.40
2023-01-25T14:49:12.996Z,10.50
2023-01-25T14:51:44.969Z,13.63
2023-01-25T14:54:19.799Z,12.32
2023-01-25T14:56:49.501Z,11.60
2023-01-25T14:59:41.666Z,11.10
2023-01-25T15:02:29.175Z,13.93
2023-01-25T15:05:04.860Z,14.02
2023-01-25T15:08:06.396Z,12.23
2023-01-25T15:10:37.293Z,13.00
2023-01-25T15:13:14.080Z,13.70
2023-01-25T15:15:59.936Z,11.55
2023-01-25T15:18:52.332Z,14.68
2023-01-25T15:21:19.826Z,14.77
2023-01-25T15:23:48.807Z,13.38
2023-01-25T15:26:21.500Z,11.13
2023-01-25T15:28:49.706Z,12.15
2023-01-25T15:31:37.276Z,15.98
2023-01-25T15:34:04.714Z,13.98
2023-01-25T15:36:32.808Z,14.20
2023-01-25T15:38:59.604Z,14.50
2023-01-25T15:41:26.058Z,12.73
2023-01-25T15:43:52.541Z,15.57
2023-01-25T15:46:25.003Z,15.48
2023-01-25T15:48:51.911Z,14.80
2023-01-25T15:51:19.111Z,14.00
2023-01-25T15:53:46.733Z,14.30
2023-01-25T15:56:16.185Z,14.30
2023-01-25T15:58:46.124Z,14.70
2023-01-25T16:01:12.946Z,13.77
2023-01-25T16:03:41.473Z,17.20
2023-01-25T16:06:32.141Z,18.73
2023-01-25T16:09:00.151Z,15.35
2023-01-25T16:11:27.509Z,15.93
2023-01-25T16:13:54.044Z,15.80
2023-01-25T16:16:23.223Z,17.17
2023-01-25T16:18:50.120Z,15.50
2023-01-25T16:21:17.062Z,17.15
2023-01-25T16:23:43.579Z,15.07
2023-01-25T16:26:23.294Z,16.98
2023-01-25T16:28:49.796Z,15.85
2023-01-25T16:31:31.443Z,17.55
2023-01-25T16:33:58.872Z,18.10
2023-01-25T16:36:25.523Z,16.70
2023-01-25T16:38:52.424Z,14.73
2023-01-25T16:41:19.005Z,17.65
2023-01-25T16:43:48.026Z,18.85
2023-01-25T16:46:20.247Z,18.10
2023-01-25T16:48:48.665Z,16.85
2023-01-25T16:51:19.623Z,15.07
2023-01-25T16:53:47.182Z,17.92
2023-01-25T16:56:22.042Z,17.00
2023-01-25T16:58:50.129Z,19.52
2023-01-25T17:01:18.606Z,18.35
2023-01-25T17:03:45.448Z,16.70
2023-01-25T17:06:23.797Z,16.48
2023-01-25T17:08:51.324Z,16.63
2023-01-25T17:11:22.616Z,18.55
2023-01-25T17:13:53.718Z,17.77
2023-01-25T17:16:21.838Z,18.25
2023-01-25T17:18:48.458Z,21.08
2023-01-25T17:21:15.091Z,15.25
2023-01-25T17:23:41.979Z,15.55
2023-01-25T17:26:13.105Z,17.95
2023-01-25T17:28:40.114Z,25.05
2023-01-25T17:31:14.401Z,21.45
2023-01-25T17:33:41.295Z,18.20
2023-01-25T17:36:09.195Z,19.13
2023-01-25T17:38:35.710Z,21.98
2023-01-25T17:41:06.306Z,20.38
2023-01-25T17:43:34.476Z,24.42
2023-01-25T17:46:11.373Z,17.92
2023-01-25T17:48:37.821Z,17.65
2023-01-25T17:51:04.760Z,16.88
2023-01-25T17:53:31.200Z,23.33
2023-01-25T17:56:02.907Z,19.10
2023-01-25T17:58:30.444Z,22.58
2023-01-25T18:01:05.157Z,17.83
2023-01-25T18:03:39.113Z,18.20
2023-01-25T18:06:09.407Z,18.52
2023-01-25T18:08:43.801Z,21.23
2023-01-25T18:11:12.614Z,18.92
2023-01-25T18:13:40.809Z,17.90
2023-01-25T18:16:09.428Z,20.48
2023-01-25T18:18:41.667Z,18.83
2023-01-25T18:21:11.011Z,20.92
2023-01-25T18:26:06.467Z,15.80
2023-01-25T18:28:33.083Z,18.55
2023-01-25T18:31:02.521Z,18.67
2023-01-25T18:33:29.390Z,21.33
2023-01-25T18:35:57.391Z,16.75
2023-01-25T18:38:24.252Z,18.45
2023-01-25T18:40:52.789Z,18.65
2023-01-25T18:43:20.060Z,19.40
2023-01-25T18:45:57.088Z,19.23
2023-01-25T18:48:30.521Z,21.98
2023-01-25T18:51:03.922Z,17.23
2023-01-25T18:53:31.953Z,17.70
2023-01-25T18:56:03.277Z,20.17
2023-01-25T18:58:34.157Z,18.05
2023-01-25T19:01:05.964Z,20.08
2023-01-25T19:03:32.817Z,18.75
2023-01-25T19:05:59.341Z,20.83
2023-01-25T19:08:27.325Z,17.77
2023-01-25T19:11:05.855Z,15.85
2023-01-25T19:13:37.095Z,14.65
2023-01-25T19:16:08.844Z,18.75
2023-01-25T19:18:37.361Z,15.63
2023-01-25T19:21:08.768Z,21.90
2023-01-25T19:23:37.035Z,17.73
2023-01-25T19:26:04.818Z,22.33
2023-01-25T19:28:31.525Z,19.00
2023-01-25T19:31:15.379Z,17.60
2023-01-25T19:33:42.640Z,25.20
2023-01-25T19:36:15.375Z,20.48
2023-01-25T19:38:42.792Z,19.30
2023-01-25T19:41:18.707Z,19.80
2023-01-25T19:43:45.652Z,20.15
2023-01-25T19:46:14.514Z,16.55
2023-01-25T19:48:42.274Z,19.27
2023-01-25T19:51:11.632Z,18.95
2023-01-25T19:56:06.130Z,16.77
2023-01-25T19:58:32.728Z,14.98
2023-01-25T20:01:10.002Z,16.80
2023-01-25T20:03:37.362Z,15.77
2023-01-25T20:06:07.017Z,19.92
2023-01-25T20:08:36.037Z,20.20
2023-01-25T20:11:20.632Z,18.52
2023-01-25T20:13:48.571Z,23.65
2023-01-25T20:16:18.372Z,20.95
2023-01-25T20:18:46.330Z,22.50
2023-01-25T20:21:16.302Z,21.42
2023-01-25T20:23:44.543Z,19.67
2023-01-25T20:26:14.455Z,19.75
2023-01-25T20:28:42.455Z,24.23
2023-01-25T20:31:27.199Z,22.13
2023-01-25T20:33:56.037Z,18.55
2023-01-25T20:36:23.369Z,20.55
2023-01-25T20:38:50.242Z,20.02
2023-01-25T20:41:18.405Z,21.17
2023-01-25T20:43:50.804Z,15.75
2023-01-25T20:46:18.805Z,17.33
2023-01-25T20:48:45.560Z,19.45
2023-01-25T20:51:16.791Z,20.73
2023-01-25T20:53:45.073Z,20.67
2023-01-25T20:56:13.186Z,20.33
2023-01-25T20:58:39.871Z,19.15
2023-01-25T21:01:18.042Z,19.45
2023-01-25T21:03:44.484Z,24.25
2023-01-25T21:06:12.025Z,19.15
2023-01-25T21:08:38.560Z,18.58
2023-01-25T21:11:05.511Z,22.75
2023-01-25T21:13:32.022Z,21.40
2023-01-25T21:16:01.145Z,23.55
2023-01-25T21:18:29.178Z,25.08
2023-01-25T21:21:09.273Z,26.60
2023-01-25T21:23:38.139Z,26.88
2023-01-25T21:26:05.834Z,26.30
2023-01-25T21:28:33.461Z,22.90
2023-01-25T21:31:10.977Z,27.92
2023-01-25T21:33:38.052Z,23.75
2023-01-25T21:36:08.645Z,23.20
2023-01-25T21:38:36.034Z,26.63
2023-01-25T21:41:04.613Z,25.80
2023-01-25T21:43:52.561Z,19.40
2023-01-25T21:46:26.662Z,18.67
2023-01-25T21:49:12.742Z,23.38
2023-01-25T21:51:51.451Z,22.50
2023-01-25T21:54:26.129Z,21.90
2023-01-25T21:56:55.149Z,21.58
2023-01-25T21:59:22.527Z,23.25
2023-01-25T22:01:49.391Z,25.90
2023-01-25T22:04:17.806Z,25.73
2023-01-25T22:06:45.161Z,18.13
2023-01-25T22:09:13.628Z,18.88
2023-01-25T22:11:40.612Z,22.42
2023-01-25T22:14:07.296Z,20.60
2023-01-25T22:16:33.714Z,25.45
2023-01-25T22:19:00.503Z,18.00
2023-01-25T22:21:30.758Z,18.73
2023-01-25T22:23:58.670Z,22.02
2023-01-25T22:26:29.671Z,20.48
2023-01-25T22:28:59.979Z,23.42
2023-01-25T22:31:30.255Z,22.30
2023-01-25T22:33:59.280Z,18.40
2023-01-25T22:36:28.377Z,24.70
2023-01-25T22:38:55.162Z,22.23
2023-01-25T22:41:24.158Z,26.92
2023-01-25T22:43:50.714Z,22.17
2023-01-25T22:46:22.484Z,20.08
2023-01-25T22:48:49.295Z,26.10
2023-01-25T22:51:22.177Z,21.15
2023-01-25T22:53:49.874Z,23.27
2023-01-25T22:56:19.440Z,19.60
2023-01-25T22:58:47.323Z,23.92
2023-01-25T23:01:17.311Z,20.60
2023-01-25T23:03:44.128Z,22.17
2023-01-25T23:06:16.856Z,20.13
2023-01-25T23:08:44.111Z,20.90
2023-01-25T23:11:16.986Z,21.05
2023-01-25T23:14:03.208Z,20.20
2023-01-25T23:16:30.346Z,19.55
2023-01-25T23:18:56.827Z,20.15
2023-01-25T23:21:27.282Z,19.13
2023-01-25T23:24:00.575Z,19.63
2023-01-25T23:26:27.683Z,20.95
2023-01-25T23:28:57.100Z,19.73
2023-01-25T23:31:25.221Z,20.02
2023-01-25T23:33:54.234Z,17.25
2023-01-25T23:36:23.999Z,17.58
2023-01-25T23:38:54.651Z,17.83
2023-01-25T23:41:23.613Z,22.10
2023-01-25T23:43:50.256Z,23.27
2023-01-25T23:46:17.451Z,17.38
2023-01-25T23:48:45.558Z,16.50
2023-01-25T23:51:13.828Z,18.48
2023-01-25T23:53:41.210Z,18.08
2023-01-25T23:56:12.323Z,18.63
2023-01-25T23:58:39.654Z,19.80
